sensor_id;sensor_type;location;lat;lon;timestamp;P1;durP1;ratioP1;P2;durP2;ratioP2
61569;SDS011;47462;59.172;17.196;2023-09-30T00:00:04;21.63;;;9.27;;
61569;SDS011;47462;59.172;17.196;2023-09-30T00:04:55;14.93;;;8.83;;
61569;SDS011;47462;59.172;17.196;2023-09-30T00:09:46;19.80;;;8.63;;
61569;SDS011;47462;59.172;17.196;2023-09-30T00:14:37;20.35;;;6.88;;
61569;SDS011;47462;59.172;17.196;2023-09-30T00:19:28;6.60;;;4.35;;
61569;SDS011;47462;59.172;17.196;2023-09-30T00:24:19;7.82;;;3.60;;
61569;SDS011;47462;59.172;17.196;2023-09-30T00:29:11;5.97;;;2.80;;
61569;SDS011;47462;59.172;17.196;2023-09-30T00:34:01;7.40;;;3.35;;
61569;SDS011;47462;59.172;17.196;2023-09-30T00:38:53;6.22;;;2.88;;
61569;SDS011;47462;59.172;17.196;2023-09-30T00:43:45;4.70;;;2.27;;
61569;SDS011;47462;59.172;17.196;2023-09-30T00:46:16;8.88;;;2.75;;
61569;SDS011;47462;59.172;17.196;2023-09-30T00:48:50;4.10;;;1.95;;
61569;SDS011;47462;59.172;17.196;2023-09-30T00:53:41;3.90;;;2.17;;
61569;SDS011;47462;59.172;17.196;2023-09-30T00:58:32;2.90;;;1.60;;
61569;SDS011;47462;59.172;17.196;2023-09-30T01:01:00;4.90;;;1.65;;
61569;SDS011;47462;59.172;17.196;2023-09-30T01:05:51;5.60;;;2.10;;
61569;SDS011;47462;59.172;17.196;2023-09-30T01:08:18;3.85;;;2.08;;
61569;SDS011;47462;59.172;17.196;2023-09-30T01:10:45;6.78;;;2.20;;
61569;SDS011;47462;59.172;17.196;2023-09-30T01:15:36;6.07;;;2.20;;
61569;SDS011;47462;59.172;17.196;2023-09-30T01:20:27;6.20;;;2.20;;
61569;SDS011;47462;59.172;17.196;2023-09-30T01:25:20;6.47;;;2.00;;
61569;SDS011;47462;59.172;17.196;2023-09-30T01:30:11;7.07;;;2.80;;
61569;SDS011;47462;59.172;17.196;2023-09-30T01:32:38;5.70;;;2.30;;
61569;SDS011;47462;59.172;17.196;2023-09-30T01:35:04;7.13;;;2.75;;
61569;SDS011;47462;59.172;17.196;2023-09-30T01:39:55;7.20;;;2.13;;
61569;SDS011;47462;59.172;17.196;2023-09-30T01:42:20;10.00;;;2.58;;
61569;SDS011;47462;59.172;17.196;2023-09-30T01:47:11;8.68;;;2.30;;
61569;SDS011;47462;59.172;17.196;2023-09-30T01:49:37;10.73;;;2.42;;
61569;SDS011;47462;59.172;17.196;2023-09-30T01:52:03;7.88;;;2.65;;
61569;SDS011;47462;59.172;17.196;2023-09-30T01:56:53;10.40;;;2.40;;
61569;SDS011;47462;59.172;17.196;2023-09-30T02:01:44;5.53;;;2.30;;
61569;SDS011;47462;59.172;17.196;2023-09-30T02:04:11;8.48;;;2.60;;
61569;SDS011;47462;59.172;17.196;2023-09-30T02:06:37;9.48;;;2.67;;
61569;SDS011;47462;59.172;17.196;2023-09-30T02:09:03;9.98;;;2.95;;
61569;SDS011;47462;59.172;17.196;2023-09-30T02:11:29;8.60;;;2.50;;
61569;SDS011;47462;59.172;17.196;2023-09-30T02:13:55;10.55;;;2.97;;
61569;SDS011;47462;59.172;17.196;2023-09-30T02:16:20;9.73;;;2.95;;
61569;SDS011;47462;59.172;17.196;2023-09-30T02:18:46;10.35;;;2.90;;
61569;SDS011;47462;59.172;17.196;2023-09-30T02:23:37;8.35;;;2.67;;
61569;SDS011;47462;59.172;17.196;2023-09-30T02:28:28;9.77;;;2.58;;
61569;SDS011;47462;59.172;17.196;2023-09-30T02:30:57;9.82;;;3.08;;
61569;SDS011;47462;59.172;17.196;2023-09-30T02:35:48;10.40;;;3.27;;
61569;SDS011;47462;59.172;17.196;2023-09-30T02:38:15;14.88;;;3.28;;
61569;SDS011;47462;59.172;17.196;2023-09-30T02:40:41;12.55;;;3.72;;
61569;SDS011;47462;59.172;17.196;2023-09-30T02:43:10;12.05;;;3.70;;
61569;SDS011;47462;59.172;17.196;2023-09-30T02:45:35;9.63;;;3.22;;
61569;SDS011;47462;59.172;17.196;2023-09-30T02:48:00;12.77;;;4.07;;
61569;SDS011;47462;59.172;17.196;2023-09-30T02:50:26;14.75;;;3.90;;
61569;SDS011;47462;59.172;17.196;2023-09-30T02:52:51;14.85;;;3.45;;
61569;SDS011;47462;59.172;17.196;2023-09-30T02:55:17;11.63;;;3.65;;
61569;SDS011;47462;59.172;17.196;2023-09-30T02:57:42;8.45;;;3.50;;
61569;SDS011;47462;59.172;17.196;2023-09-30T03:00:08;11.27;;;3.35;;
61569;SDS011;47462;59.172;17.196;2023-09-30T03:02:54;8.23;;;3.72;;
61569;SDS011;47462;59.172;17.196;2023-09-30T03:05:20;16.75;;;3.50;;
61569;SDS011;47462;59.172;17.196;2023-09-30T03:07:46;13.23;;;3.55;;
61569;SDS011;47462;59.172;17.196;2023-09-30T03:10:12;11.25;;;3.88;;
61569;SDS011;47462;59.172;17.196;2023-09-30T03:12:39;17.30;;;3.60;;
61569;SDS011;47462;59.172;17.196;2023-09-30T03:15:04;12.00;;;3.55;;
61569;SDS011;47462;59.172;17.196;2023-09-30T03:19:57;15.57;;;3.57;;
61569;SDS011;47462;59.172;17.196;2023-09-30T03:22:24;17.10;;;4.07;;
61569;SDS011;47462;59.172;17.196;2023-09-30T03:24:50;13.85;;;4.18;;
61569;SDS011;47462;59.172;17.196;2023-09-30T03:27:16;15.40;;;4.20;;
61569;SDS011;47462;59.172;17.196;2023-09-30T03:29:42;16.15;;;4.18;;
61569;SDS011;47462;59.172;17.196;2023-09-30T03:32:07;12.68;;;3.63;;
61569;SDS011;47462;59.172;17.196;2023-09-30T03:34:35;11.85;;;3.78;;
61569;SDS011;47462;59.172;17.196;2023-09-30T03:37:05;12.23;;;3.35;;
61569;SDS011;47462;59.172;17.196;2023-09-30T03:39:34;17.05;;;4.65;;
61569;SDS011;47462;59.172;17.196;2023-09-30T03:42:00;16.87;;;4.00;;
61569;SDS011;47462;59.172;17.196;2023-09-30T03:44:26;16.60;;;5.20;;
61569;SDS011;47462;59.172;17.196;2023-09-30T03:46:51;16.30;;;4.10;;
61569;SDS011;47462;59.172;17.196;2023-09-30T03:49:17;15.38;;;4.18;;
61569;SDS011;47462;59.172;17.196;2023-09-30T03:51:44;15.38;;;4.75;;
61569;SDS011;47462;59.172;17.196;2023-09-30T03:54:10;15.38;;;4.30;;
61569;SDS011;47462;59.172;17.196;2023-09-30T03:56:36;15.93;;;4.38;;
61569;SDS011;47462;59.172;17.196;2023-09-30T03:59:03;20.52;;;4.20;;
61569;SDS011;47462;59.172;17.196;2023-09-30T04:01:29;14.63;;;4.28;;
61569;SDS011;47462;59.172;17.196;2023-09-30T04:03:56;20.55;;;4.30;;
61569;SDS011;47462;59.172;17.196;2023-09-30T04:06:21;14.70;;;4.32;;
61569;SDS011;47462;59.172;17.196;2023-09-30T04:08:47;12.13;;;3.75;;
61569;SDS011;47462;59.172;17.196;2023-09-30T04:11:12;18.17;;;4.68;;
61569;SDS011;47462;59.172;17.196;2023-09-30T04:13:43;15.60;;;4.82;;
61569;SDS011;47462;59.172;17.196;2023-09-30T04:16:10;21.00;;;4.90;;
61569;SDS011;47462;59.172;17.196;2023-09-30T04:18:35;16.45;;;4.13;;
61569;SDS011;47462;59.172;17.196;2023-09-30T04:21:01;20.90;;;4.68;;
61569;SDS011;47462;59.172;17.196;2023-09-30T04:23:27;16.40;;;4.57;;
61569;SDS011;47462;59.172;17.196;2023-09-30T04:25:52;18.88;;;4.03;;
61569;SDS011;47462;59.172;17.196;2023-09-30T04:28:18;16.95;;;4.20;;
61569;SDS011;47462;59.172;17.196;2023-09-30T04:30:49;15.80;;;6.20;;
61569;SDS011;47462;59.172;17.196;2023-09-30T04:33:16;13.95;;;5.78;;
61569;SDS011;47462;59.172;17.196;2023-09-30T04:35:45;21.35;;;4.90;;
61569;SDS011;47462;59.172;17.196;2023-09-30T04:38:10;20.85;;;4.68;;
61569;SDS011;47462;59.172;17.196;2023-09-30T04:40:36;16.30;;;4.93;;
61569;SDS011;47462;59.172;17.196;2023-09-30T04:43:02;18.05;;;4.88;;
61569;SDS011;47462;59.172;17.196;2023-09-30T04:45:28;15.88;;;5.40;;
61569;SDS011;47462;59.172;17.196;2023-09-30T04:47:53;16.05;;;4.53;;
61569;SDS011;47462;59.172;17.196;2023-09-30T04:50:21;18.35;;;4.88;;
61569;SDS011;47462;59.172;17.196;2023-09-30T04:52:47;22.80;;;5.05;;
61569;SDS011;47462;59.172;17.196;2023-09-30T04:55:14;18.13;;;4.53;;
61569;SDS011;47462;59.172;17.196;2023-09-30T04:57:41;17.27;;;5.10;;
61569;SDS011;47462;59.172;17.196;2023-09-30T05:00:09;23.13;;;4.45;;
61569;SDS011;47462;59.172;17.196;2023-09-30T05:02:37;22.10;;;5.28;;
61569;SDS011;47462;59.172;17.196;2023-09-30T05:05:03;25.20;;;5.90;;
61569;SDS011;47462;59.172;17.196;2023-09-30T05:07:32;21.70;;;5.32;;
61569;SDS011;47462;59.172;17.196;2023-09-30T05:12:24;21.73;;;5.15;;
61569;SDS011;47462;59.172;17.196;2023-09-30T05:14:50;24.00;;;4.10;;
61569;SDS011;47462;59.172;17.196;2023-09-30T05:17:16;15.63;;;3.95;;
61569;SDS011;47462;59.172;17.196;2023-09-30T05:19:41;20.65;;;4.68;;
61569;SDS011;47462;59.172;17.196;2023-09-30T05:22:07;16.45;;;3.97;;
61569;SDS011;47462;59.172;17.196;2023-09-30T05:24:32;13.43;;;3.97;;
61569;SDS011;47462;59.172;17.196;2023-09-30T05:26:58;21.35;;;4.95;;
61569;SDS011;47462;59.172;17.196;2023-09-30T05:29:23;17.50;;;4.38;;
61569;SDS011;47462;59.172;17.196;2023-09-30T05:31:49;18.80;;;5.03;;
61569;SDS011;47462;59.172;17.196;2023-09-30T05:34:14;20.90;;;4.67;;
61569;SDS011;47462;59.172;17.196;2023-09-30T05:36:39;15.93;;;3.85;;
61569;SDS011;47462;59.172;17.196;2023-09-30T05:39:05;14.70;;;3.70;;
61569;SDS011;47462;59.172;17.196;2023-09-30T05:41:31;22.10;;;4.72;;
61569;SDS011;47462;59.172;17.196;2023-09-30T05:43:57;15.00;;;3.97;;
61569;SDS011;47462;59.172;17.196;2023-09-30T05:46:24;19.63;;;3.55;;
61569;SDS011;47462;59.172;17.196;2023-09-30T05:48:49;15.25;;;3.45;;
61569;SDS011;47462;59.172;17.196;2023-09-30T05:51:15;17.60;;;4.00;;
61569;SDS011;47462;59.172;17.196;2023-09-30T05:53:41;16.52;;;3.58;;
61569;SDS011;47462;59.172;17.196;2023-09-30T05:56:07;15.50;;;3.83;;
61569;SDS011;47462;59.172;17.196;2023-09-30T06:00:58;24.90;;;4.13;;
61569;SDS011;47462;59.172;17.196;2023-09-30T06:03:25;14.25;;;3.78;;
61569;SDS011;47462;59.172;17.196;2023-09-30T06:05:54;18.65;;;3.40;;
61569;SDS011;47462;59.172;17.196;2023-09-30T06:08:21;15.23;;;3.95;;
61569;SDS011;47462;59.172;17.196;2023-09-30T06:10:46;23.35;;;4.20;;
61569;SDS011;47462;59.172;17.196;2023-09-30T06:13:12;14.95;;;3.28;;
61569;SDS011;47462;59.172;17.196;2023-09-30T06:15:41;18.92;;;3.50;;
61569;SDS011;47462;59.172;17.196;2023-09-30T06:18:08;14.30;;;3.60;;
61569;SDS011;47462;59.172;17.196;2023-09-30T06:20:37;18.70;;;4.07;;
61569;SDS011;47462;59.172;17.196;2023-09-30T06:23:03;13.60;;;3.42;;
61569;SDS011;47462;59.172;17.196;2023-09-30T06:25:28;14.73;;;3.67;;
61569;SDS011;47462;59.172;17.196;2023-09-30T06:27:55;15.93;;;3.78;;
61569;SDS011;47462;59.172;17.196;2023-09-30T06:30:21;25.60;;;4.70;;
61569;SDS011;47462;59.172;17.196;2023-09-30T06:32:47;16.48;;;2.47;;
61569;SDS011;47462;59.172;17.196;2023-09-30T06:35:13;14.82;;;3.53;;
61569;SDS011;47462;59.172;17.196;2023-09-30T06:37:39;17.27;;;3.70;;
61569;SDS011;47462;59.172;17.196;2023-09-30T06:40:06;15.15;;;3.03;;
61569;SDS011;47462;59.172;17.196;2023-09-30T06:42:33;18.42;;;3.75;;
61569;SDS011;47462;59.172;17.196;2023-09-30T06:45:00;16.50;;;3.03;;
61569;SDS011;47462;59.172;17.196;2023-09-30T06:47:26;17.77;;;3.80;;
61569;SDS011;47462;59.172;17.196;2023-09-30T06:49:52;17.00;;;3.95;;
61569;SDS011;47462;59.172;17.196;2023-09-30T06:52:17;13.13;;;3.03;;
61569;SDS011;47462;59.172;17.196;2023-09-30T06:54:42;17.15;;;3.42;;
61569;SDS011;47462;59.172;17.196;2023-09-30T06:59:34;18.42;;;2.90;;
61569;SDS011;47462;59.172;17.196;2023-09-30T07:02:00;21.25;;;4.15;;
61569;SDS011;47462;59.172;17.196;2023-09-30T07:06:52;20.77;;;3.17;;
61569;SDS011;47462;59.172;17.196;2023-09-30T07:09:18;15.90;;;3.25;;
61569;SDS011;47462;59.172;17.196;2023-09-30T07:11:45;22.55;;;3.72;;
61569;SDS011;47462;59.172;17.196;2023-09-30T07:14:11;19.05;;;3.13;;
61569;SDS011;47462;59.172;17.196;2023-09-30T07:19:01;16.80;;;2.97;;
61569;SDS011;47462;59.172;17.196;2023-09-30T07:21:28;16.98;;;3.00;;
61569;SDS011;47462;59.172;17.196;2023-09-30T07:23:53;16.60;;;3.40;;
61569;SDS011;47462;59.172;17.196;2023-09-30T07:28:49;17.50;;;2.85;;
61569;SDS011;47462;59.172;17.196;2023-09-30T07:31:14;11.48;;;3.05;;
61569;SDS011;47462;59.172;17.196;2023-09-30T07:36:05;15.05;;;3.20;;
61569;SDS011;47462;59.172;17.196;2023-09-30T07:40:56;20.13;;;4.07;;
61569;SDS011;47462;59.172;17.196;2023-09-30T07:43:21;25.00;;;4.05;;
61569;SDS011;47462;59.172;17.196;2023-09-30T07:48:13;19.98;;;4.20;;
61569;SDS011;47462;59.172;17.196;2023-09-30T07:50:39;18.73;;;3.35;;
61569;SDS011;47462;59.172;17.196;2023-09-30T07:53:04;21.65;;;4.22;;
61569;SDS011;47462;59.172;17.196;2023-09-30T07:57:56;11.07;;;3.25;;
61569;SDS011;47462;59.172;17.196;2023-09-30T08:00:22;18.85;;;3.60;;
61569;SDS011;47462;59.172;17.196;2023-09-30T08:02:48;18.75;;;3.95;;
61569;SDS011;47462;59.172;17.196;2023-09-30T08:05:15;17.48;;;4.43;;
61569;SDS011;47462;59.172;17.196;2023-09-30T08:07:41;17.95;;;3.22;;
61569;SDS011;47462;59.172;17.196;2023-09-30T08:12:37;13.63;;;3.28;;
61569;SDS011;47462;59.172;17.196;2023-09-30T08:17:28;16.55;;;3.70;;
61569;SDS011;47462;59.172;17.196;2023-09-30T08:19:54;19.77;;;3.38;;
61569;SDS011;47462;59.172;17.196;2023-09-30T08:22:20;15.30;;;3.97;;
61569;SDS011;47462;59.172;17.196;2023-09-30T08:24:46;12.82;;;3.40;;
61569;SDS011;47462;59.172;17.196;2023-09-30T08:29:36;16.45;;;3.47;;
61569;SDS011;47462;59.172;17.196;2023-09-30T08:32:02;14.32;;;3.17;;
61569;SDS011;47462;59.172;17.196;2023-09-30T08:36:54;19.40;;;4.18;;
61569;SDS011;47462;59.172;17.196;2023-09-30T08:41:44;19.23;;;3.38;;
61569;SDS011;47462;59.172;17.196;2023-09-30T08:44:10;15.90;;;3.00;;
61569;SDS011;47462;59.172;17.196;2023-09-30T08:49:02;17.20;;;3.45;;
61569;SDS011;47462;59.172;17.196;2023-09-30T08:51:29;19.75;;;3.40;;
61569;SDS011;47462;59.172;17.196;2023-09-30T08:53:56;13.23;;;3.28;;
61569;SDS011;47462;59.172;17.196;2023-09-30T08:56:24;17.17;;;3.25;;
61569;SDS011;47462;59.172;17.196;2023-09-30T08:58:52;14.00;;;3.05;;
61569;SDS011;47462;59.172;17.196;2023-09-30T09:01:22;19.73;;;3.88;;
61569;SDS011;47462;59.172;17.196;2023-09-30T09:03:49;13.70;;;3.17;;
61569;SDS011;47462;59.172;17.196;2023-09-30T09:06:18;16.60;;;3.50;;
61569;SDS011;47462;59.172;17.196;2023-09-30T09:08:46;13.48;;;3.08;;
61569;SDS011;47462;59.172;17.196;2023-09-30T09:11:12;17.60;;;3.88;;
61569;SDS011;47462;59.172;17.196;2023-09-30T09:13:51;14.10;;;3.53;;
61569;SDS011;47462;59.172;17.196;2023-09-30T09:16:21;12.98;;;2.85;;
61569;SDS011;47462;59.172;17.196;2023-09-30T09:18:47;15.10;;;2.92;;
61569;SDS011;47462;59.172;17.196;2023-09-30T09:21:14;13.82;;;2.83;;
61569;SDS011;47462;59.172;17.196;2023-09-30T09:26:07;18.08;;;3.08;;
61569;SDS011;47462;59.172;17.196;2023-09-30T09:28:34;16.33;;;3.83;;
61569;SDS011;47462;59.172;17.196;2023-09-30T09:31:28;12.60;;;2.83;;
61569;SDS011;47462;59.172;17.196;2023-09-30T09:33:54;13.80;;;2.60;;
61569;SDS011;47462;59.172;17.196;2023-09-30T09:38:46;23.27;;;4.10;;
61569;SDS011;47462;59.172;17.196;2023-09-30T09:41:18;16.20;;;3.35;;
61569;SDS011;47462;59.172;17.196;2023-09-30T09:43:48;15.55;;;3.13;;
61569;SDS011;47462;59.172;17.196;2023-09-30T09:46:14;18.83;;;3.67;;
61569;SDS011;47462;59.172;17.196;2023-09-30T09:48:42;13.18;;;2.70;;
61569;SDS011;47462;59.172;17.196;2023-09-30T09:51:11;17.08;;;3.55;;
61569;SDS011;47462;59.172;17.196;2023-09-30T09:53:37;9.43;;;2.45;;
61569;SDS011;47462;59.172;17.196;2023-09-30T09:56:07;11.60;;;2.85;;
61569;SDS011;47462;59.172;17.196;2023-09-30T09:58:35;13.48;;;2.88;;
61569;SDS011;47462;59.172;17.196;2023-09-30T10:01:03;12.15;;;2.65;;
61569;SDS011;47462;59.172;17.196;2023-09-30T10:03:32;10.07;;;2.40;;
61569;SDS011;47462;59.172;17.196;2023-09-30T10:08:28;10.55;;;2.28;;
61569;SDS011;47462;59.172;17.196;2023-09-30T10:10:58;11.73;;;2.72;;
61569;SDS011;47462;59.172;17.196;2023-09-30T10:19:21;14.65;;;2.65;;
61569;SDS011;47462;59.172;17.196;2023-09-30T10:24:41;11.15;;;2.03;;
61569;SDS011;47462;59.172;17.196;2023-09-30T10:29:57;13.55;;;2.60;;
61569;SDS011;47462;59.172;17.196;2023-09-30T10:33:10;12.85;;;2.70;;
61569;SDS011;47462;59.172;17.196;2023-09-30T10:35:19;11.68;;;2.10;;
61569;SDS011;47462;59.172;17.196;2023-09-30T10:37:46;9.90;;;1.92;;
61569;SDS011;47462;59.172;17.196;2023-09-30T10:40:26;9.88;;;2.83;;
61569;SDS011;47462;59.172;17.196;2023-09-30T10:42:53;8.85;;;1.30;;
61569;SDS011;47462;59.172;17.196;2023-09-30T10:45:42;10.13;;;2.30;;
61569;SDS011;47462;59.172;17.196;2023-09-30T10:50:50;11.57;;;2.10;;
61569;SDS011;47462;59.172;17.196;2023-09-30T10:53:17;5.80;;;1.40;;
61569;SDS011;47462;59.172;17.196;2023-09-30T10:55:46;7.25;;;1.48;;
61569;SDS011;47462;59.172;17.196;2023-09-30T10:58:15;9.85;;;1.77;;
61569;SDS011;47462;59.172;17.196;2023-09-30T11:00:51;7.10;;;1.67;;
61569;SDS011;47462;59.172;17.196;2023-09-30T11:03:20;10.80;;;1.85;;
61569;SDS011;47462;59.172;17.196;2023-09-30T11:05:47;8.50;;;1.80;;
61569;SDS011;47462;59.172;17.196;2023-09-30T11:08:13;7.57;;;1.50;;
61569;SDS011;47462;59.172;17.196;2023-09-30T11:10:46;9.27;;;2.10;;
61569;SDS011;47462;59.172;17.196;2023-09-30T11:13:18;8.65;;;1.60;;
61569;SDS011;47462;59.172;17.196;2023-09-30T11:15:44;10.10;;;1.60;;
61569;SDS011;47462;59.172;17.196;2023-09-30T11:20:43;9.07;;;1.83;;
61569;SDS011;47462;59.172;17.196;2023-09-30T11:23:09;4.68;;;1.30;;
61569;SDS011;47462;59.172;17.196;2023-09-30T11:25:38;11.90;;;1.67;;
61569;SDS011;47462;59.172;17.196;2023-09-30T11:30:59;6.53;;;1.45;;
61569;SDS011;47462;59.172;17.196;2023-09-30T11:33:27;5.95;;;1.35;;
61569;SDS011;47462;59.172;17.196;2023-09-30T11:38:30;9.57;;;1.75;;
61569;SDS011;47462;59.172;17.196;2023-09-30T11:43:32;8.57;;;1.70;;
61569;SDS011;47462;59.172;17.196;2023-09-30T11:46:08;8.07;;;1.70;;
61569;SDS011;47462;59.172;17.196;2023-09-30T11:48:36;8.80;;;1.80;;
61569;SDS011;47462;59.172;17.196;2023-09-30T11:51:02;4.28;;;1.27;;
61569;SDS011;47462;59.172;17.196;2023-09-30T11:53:31;9.35;;;1.40;;
61569;SDS011;47462;59.172;17.196;2023-09-30T11:56:00;9.75;;;1.70;;
61569;SDS011;47462;59.172;17.196;2023-09-30T11:58:33;8.30;;;1.45;;
61569;SDS011;47462;59.172;17.196;2023-09-30T12:00:59;4.75;;;1.35;;
61569;SDS011;47462;59.172;17.196;2023-09-30T12:05:52;10.13;;;1.48;;
61569;SDS011;47462;59.172;17.196;2023-09-30T12:08:21;3.92;;;1.20;;
61569;SDS011;47462;59.172;17.196;2023-09-30T12:10:48;8.00;;;0.90;;
61569;SDS011;47462;59.172;17.196;2023-09-30T12:15:40;4.55;;;1.10;;
61569;SDS011;47462;59.172;17.196;2023-09-30T12:18:06;5.95;;;1.48;;
61569;SDS011;47462;59.172;17.196;2023-09-30T12:22:57;6.18;;;1.00;;
61569;SDS011;47462;59.172;17.196;2023-09-30T12:27:50;6.20;;;1.40;;
61569;SDS011;47462;59.172;17.196;2023-09-30T12:32:42;6.07;;;1.17;;
61569;SDS011;47462;59.172;17.196;2023-09-30T12:37:32;10.07;;;1.02;;
61569;SDS011;47462;59.172;17.196;2023-09-30T12:42:23;7.53;;;1.73;;
61569;SDS011;47462;59.172;17.196;2023-09-30T12:47:14;5.63;;;1.15;;
61569;SDS011;47462;59.172;17.196;2023-09-30T12:49:39;5.35;;;1.05;;
61569;SDS011;47462;59.172;17.196;2023-09-30T12:54:30;4.43;;;1.20;;
61569;SDS011;47462;59.172;17.196;2023-09-30T12:56:55;7.22;;;1.20;;
61569;SDS011;47462;59.172;17.196;2023-09-30T12:59:21;3.03;;;0.82;;
61569;SDS011;47462;59.172;17.196;2023-09-30T13:01:50;5.63;;;0.98;;
61569;SDS011;47462;59.172;17.196;2023-09-30T13:06:42;7.72;;;1.38;;
61569;SDS011;47462;59.172;17.196;2023-09-30T13:09:08;4.28;;;1.20;;
61569;SDS011;47462;59.172;17.196;2023-09-30T13:13:59;4.30;;;0.93;;
61569;SDS011;47462;59.172;17.196;2023-09-30T13:18:50;5.25;;;1.15;;
61569;SDS011;47462;59.172;17.196;2023-09-30T13:21:17;8.35;;;1.50;;
61569;SDS011;47462;59.172;17.196;2023-09-30T13:23:43;4.60;;;0.90;;
61569;SDS011;47462;59.172;17.196;2023-09-30T13:28:33;5.75;;;1.00;;
61569;SDS011;47462;59.172;17.196;2023-09-30T13:30:59;3.50;;;1.20;;
61569;SDS011;47462;59.172;17.196;2023-09-30T13:33:24;5.25;;;0.95;;
61569;SDS011;47462;59.172;17.196;2023-09-30T13:35:50;3.92;;;1.10;;
61569;SDS011;47462;59.172;17.196;2023-09-30T13:38:16;5.03;;;0.88;;
61569;SDS011;47462;59.172;17.196;2023-09-30T13:40:41;6.57;;;0.98;;
61569;SDS011;47462;59.172;17.196;2023-09-30T13:43:07;5.47;;;1.27;;
61569;SDS011;47462;59.172;17.196;2023-09-30T13:47:57;3.38;;;0.95;;
61569;SDS011;47462;59.172;17.196;2023-09-30T13:50:23;4.90;;;1.08;;
61569;SDS011;47462;59.172;17.196;2023-09-30T13:52:48;3.53;;;1.17;;
61569;SDS011;47462;59.172;17.196;2023-09-30T13:55:14;4.45;;;0.95;;
61569;SDS011;47462;59.172;17.196;2023-09-30T13:57:46;3.03;;;0.68;;
61569;SDS011;47462;59.172;17.196;2023-09-30T14:00:12;5.07;;;1.05;;
61569;SDS011;47462;59.172;17.196;2023-09-30T14:02:39;6.32;;;1.17;;
61569;SDS011;47462;59.172;17.196;2023-09-30T14:07:32;6.07;;;1.00;;
61569;SDS011;47462;59.172;17.196;2023-09-30T14:12:23;6.83;;;0.93;;
61569;SDS011;47462;59.172;17.196;2023-09-30T14:17:16;1.95;;;0.63;;
61569;SDS011;47462;59.172;17.196;2023-09-30T14:22:07;6.28;;;1.13;;
61569;SDS011;47462;59.172;17.196;2023-09-30T14:24:33;4.65;;;0.77;;
61569;SDS011;47462;59.172;17.196;2023-09-30T14:27:00;5.65;;;1.58;;
61569;SDS011;47462;59.172;17.196;2023-09-30T14:29:26;5.60;;;1.13;;
61569;SDS011;47462;59.172;17.196;2023-09-30T14:31:53;5.47;;;1.08;;
61569;SDS011;47462;59.172;17.196;2023-09-30T14:36:44;6.30;;;1.00;;
61569;SDS011;47462;59.172;17.196;2023-09-30T14:41:35;4.32;;;1.17;;
61569;SDS011;47462;59.172;17.196;2023-09-30T14:46:26;3.17;;;1.10;;
61569;SDS011;47462;59.172;17.196;2023-09-30T14:51:16;3.67;;;1.02;;
61569;SDS011;47462;59.172;17.196;2023-09-30T14:53:46;2.75;;;0.90;;
61569;SDS011;47462;59.172;17.196;2023-09-30T14:58:41;4.53;;;1.17;;
61569;SDS011;47462;59.172;17.196;2023-09-30T15:03:36;4.43;;;0.75;;
61569;SDS011;47462;59.172;17.196;2023-09-30T15:06:04;7.55;;;1.15;;
61569;SDS011;47462;59.172;17.196;2023-09-30T15:08:30;4.43;;;0.70;;
61569;SDS011;47462;59.172;17.196;2023-09-30T15:10:59;4.93;;;0.88;;
61569;SDS011;47462;59.172;17.196;2023-09-30T15:13:25;5.57;;;1.85;;
61569;SDS011;47462;59.172;17.196;2023-09-30T15:18:16;4.07;;;0.85;;
61569;SDS011;47462;59.172;17.196;2023-09-30T15:23:07;3.28;;;0.80;;
61569;SDS011;47462;59.172;17.196;2023-09-30T15:27:58;5.03;;;1.17;;
61569;SDS011;47462;59.172;17.196;2023-09-30T15:32:49;2.97;;;0.80;;
61569;SDS011;47462;59.172;17.196;2023-09-30T15:37:40;5.45;;;0.85;;
61569;SDS011;47462;59.172;17.196;2023-09-30T15:42:32;5.22;;;0.93;;
61569;SDS011;47462;59.172;17.196;2023-09-30T15:44:57;5.10;;;0.98;;
61569;SDS011;47462;59.172;17.196;2023-09-30T15:49:49;2.58;;;0.88;;
61569;SDS011;47462;59.172;17.196;2023-09-30T15:52:15;3.60;;;0.98;;
61569;SDS011;47462;59.172;17.196;2023-09-30T15:57:06;3.40;;;1.35;;
61569;SDS011;47462;59.172;17.196;2023-09-30T15:59:33;3.00;;;0.70;;
61569;SDS011;47462;59.172;17.196;2023-09-30T16:04:24;4.70;;;1.23;;
61569;SDS011;47462;59.172;17.196;2023-09-30T16:09:14;6.43;;;1.57;;
61569;SDS011;47462;59.172;17.196;2023-09-30T16:14:07;4.20;;;1.02;;
61569;SDS011;47462;59.172;17.196;2023-09-30T16:18:58;5.60;;;0.93;;
61569;SDS011;47462;59.172;17.196;2023-09-30T16:23:51;5.75;;;1.23;;
61569;SDS011;47462;59.172;17.196;2023-09-30T16:28:42;6.82;;;1.63;;
61569;SDS011;47462;59.172;17.196;2023-09-30T16:33:32;6.50;;;1.52;;
61569;SDS011;47462;59.172;17.196;2023-09-30T16:38:23;5.53;;;1.93;;
61569;SDS011;47462;59.172;17.196;2023-09-30T16:40:52;3.58;;;1.10;;
61569;SDS011;47462;59.172;17.196;2023-09-30T16:43:21;3.75;;;1.52;;
61569;SDS011;47462;59.172;17.196;2023-09-30T16:45:47;6.57;;;3.67;;
61569;SDS011;47462;59.172;17.196;2023-09-30T16:48:14;29.05;;;17.58;;
61569;SDS011;47462;59.172;17.196;2023-09-30T16:50:43;11.82;;;6.50;;
61569;SDS011;47462;59.172;17.196;2023-09-30T16:53:09;24.23;;;15.07;;
61569;SDS011;47462;59.172;17.196;2023-09-30T16:55:35;56.72;;;37.45;;
61569;SDS011;47462;59.172;17.196;2023-09-30T17:00:26;139.48;;;100.47;;
61569;SDS011;47462;59.172;17.196;2023-09-30T17:02:52;44.03;;;31.00;;
61569;SDS011;47462;59.172;17.196;2023-09-30T17:05:17;55.38;;;37.10;;
61569;SDS011;47462;59.172;17.196;2023-09-30T17:10:09;17.20;;;8.98;;
61569;SDS011;47462;59.172;17.196;2023-09-30T17:12:34;8.23;;;2.05;;
61569;SDS011;47462;59.172;17.196;2023-09-30T17:15:01;18.15;;;8.30;;
61569;SDS011;47462;59.172;17.196;2023-09-30T17:17:28;9.80;;;1.63;;
61569;SDS011;47462;59.172;17.196;2023-09-30T17:19:54;9.65;;;1.92;;
61569;SDS011;47462;59.172;17.196;2023-09-30T17:22:19;3.70;;;1.98;;
61569;SDS011;47462;59.172;17.196;2023-09-30T17:27:10;2.80;;;0.90;;
61569;SDS011;47462;59.172;17.196;2023-09-30T17:29:35;5.18;;;1.40;;
61569;SDS011;47462;59.172;17.196;2023-09-30T17:32:03;8.40;;;1.73;;
61569;SDS011;47462;59.172;17.196;2023-09-30T17:34:30;3.85;;;1.25;;
61569;SDS011;47462;59.172;17.196;2023-09-30T17:36:57;7.20;;;2.00;;
61569;SDS011;47462;59.172;17.196;2023-09-30T17:39:23;5.38;;;1.83;;
61569;SDS011;47462;59.172;17.196;2023-09-30T17:44:13;5.90;;;1.43;;
61569;SDS011;47462;59.172;17.196;2023-09-30T17:46:39;4.03;;;1.08;;
61569;SDS011;47462;59.172;17.196;2023-09-30T17:49:05;8.55;;;1.60;;
61569;SDS011;47462;59.172;17.196;2023-09-30T17:51:30;6.10;;;1.67;;
61569;SDS011;47462;59.172;17.196;2023-09-30T17:53:56;5.30;;;1.00;;
61569;SDS011;47462;59.172;17.196;2023-09-30T17:56:22;9.60;;;1.35;;
61569;SDS011;47462;59.172;17.196;2023-09-30T17:58:49;8.38;;;1.10;;
61569;SDS011;47462;59.172;17.196;2023-09-30T18:01:16;4.88;;;1.42;;
61569;SDS011;47462;59.172;17.196;2023-09-30T18:03:44;7.22;;;1.42;;
61569;SDS011;47462;59.172;17.196;2023-09-30T18:06:11;5.03;;;1.52;;
61569;SDS011;47462;59.172;17.196;2023-09-30T18:08:38;7.55;;;1.55;;
61569;SDS011;47462;59.172;17.196;2023-09-30T18:13:29;4.68;;;0.77;;
61569;SDS011;47462;59.172;17.196;2023-09-30T18:15:56;2.90;;;0.82;;
61569;SDS011;47462;59.172;17.196;2023-09-30T18:18:21;6.18;;;0.90;;
61569;SDS011;47462;59.172;17.196;2023-09-30T18:20:47;4.63;;;1.00;;